Weather at Bade Airstrip [CLOSED]

Public forecast

Using degrees Celsius for public forecast. Weather courtesy of forecast.io.

Closest aviation weather report (METAR) to Bade Airstrip

Closest report is Taiwan Taoyuan International Airport, 9.4 nm (17.4 km) NNW. Retrieved 2020/11/28 15:30 UTC (17 minutes ago):

RCTP 281530Z 04018KT 9999 -DZ FEW008 BKN015 BKN030 18/16 Q1022 NOSIG RMK A3020

Closest aviation forecast (TAF) to Bade Airstrip

Closest forecast is Taiwan Taoyuan International Airport, 9.4 nm (17.4 km) NNW. Retrieved 2020/11/28 12:00 UTC (4 hours ago):

TAF RCTP 281100Z 2812/2918 04020G30KT 9999 SCT007 BKN015 BKN030 TEMPO 2816/2822 06015KT 5000 RA SCT005 BKN009 BKN020 TEMPO 2822/2904 SCT005 BKN010 BKN025 TEMPO 2904/2910 05025G35KT SCT006 BKN011 BKN030 TEMPO 2912/2918 06015KT SCT005 BKN010 BKN025